sensor_id;sensor_type;location;lat;lon;timestamp;pressure;altitude;pressure_sealevel;temperature;humidity
71299;BME280;59083;47.974;21.722;2023-04-26T00:01:27;99627.53;;;7.72;98.51
71299;BME280;59083;47.974;21.722;2023-04-26T00:04:30;99618.13;;;7.69;98.65
71299;BME280;59083;47.974;21.722;2023-04-26T00:07:31;99619.16;;;7.68;98.45
71299;BME280;59083;47.974;21.722;2023-04-26T00:10:32;99624.62;;;7.67;98.74
71299;BME280;59083;47.974;21.722;2023-04-26T00:13:33;99625.47;;;7.67;98.84
71299;BME280;59083;47.974;21.722;2023-04-26T00:16:35;99625.38;;;7.61;98.51
71299;BME280;59083;47.974;21.722;2023-04-26T00:19:36;99628.22;;;7.59;98.52
71299;BME280;59083;47.974;21.722;2023-04-26T00:22:38;99626.56;;;7.58;99.14
71299;BME280;59083;47.974;21.722;2023-04-26T00:25:40;99637.09;;;7.52;100.00
71299;BME280;59083;47.974;21.722;2023-04-26T00:28:41;99647.25;;;7.48;100.00
71299;BME280;59083;47.974;21.722;2023-04-26T00:31:42;99641.03;;;7.41;100.00
71299;BME280;59083;47.974;21.722;2023-04-26T00:34:44;99644.78;;;7.46;100.00
71299;BME280;59083;47.974;21.722;2023-04-26T00:37:45;99649.63;;;7.43;100.00
71299;BME280;59083;47.974;21.722;2023-04-26T00:40:47;99646.34;;;7.41;100.00
71299;BME280;59083;47.974;21.722;2023-04-26T00:43:48;99639.84;;;7.43;100.00
71299;BME280;59083;47.974;21.722;2023-04-26T00:46:51;99637.78;;;7.39;100.00
71299;BME280;59083;47.974;21.722;2023-04-26T00:49:52;99647.06;;;7.35;100.00
71299;BME280;59083;47.974;21.722;2023-04-26T00:52:54;99648.09;;;7.34;100.00
71299;BME280;59083;47.974;21.722;2023-04-26T00:55:57;99651.09;;;7.31;100.00
71299;BME280;59083;47.974;21.722;2023-04-26T00:58:59;99646.19;;;7.28;100.00
71299;BME280;59083;47.974;21.722;2023-04-26T01:02:01;99644.53;;;7.27;100.00
71299;BME280;59083;47.974;21.722;2023-04-26T01:05:04;99647.53;;;7.24;100.00
71299;BME280;59083;47.974;21.722;2023-04-26T01:08:06;99649.56;;;7.22;100.00
71299;BME280;59083;47.974;21.722;2023-04-26T01:11:07;99651.41;;;7.21;100.00
71299;BME280;59083;47.974;21.722;2023-04-26T01:14:09;99648.75;;;7.21;100.00
71299;BME280;59083;47.974;21.722;2023-04-26T01:17:11;99655.22;;;7.19;100.00
71299;BME280;59083;47.974;21.722;2023-04-26T01:20:14;99654.12;;;7.28;100.00
71299;BME280;59083;47.974;21.722;2023-04-26T01:23:15;99647.84;;;7.29;100.00
71299;BME280;59083;47.974;21.722;2023-04-26T01:26:17;99653.13;;;7.29;100.00
71299;BME280;59083;47.974;21.722;2023-04-26T01:29:20;99649.19;;;7.25;100.00
71299;BME280;59083;47.974;21.722;2023-04-26T01:32:21;99658.78;;;7.26;100.00
71299;BME280;59083;47.974;21.722;2023-04-26T01:35:23;99656.53;;;7.23;100.00
71299;BME280;59083;47.974;21.722;2023-04-26T01:38:24;99664.75;;;7.28;100.00
71299;BME280;59083;47.974;21.722;2023-04-26T01:41:27;99663.66;;;7.22;100.00
71299;BME280;59083;47.974;21.722;2023-04-26T01:44:29;99656.13;;;7.26;100.00
71299;BME280;59083;47.974;21.722;2023-04-26T01:47:30;99650.56;;;7.21;100.00
71299;BME280;59083;47.974;21.722;2023-04-26T01:50:31;99653.94;;;7.29;100.00
71299;BME280;59083;47.974;21.722;2023-04-26T01:53:33;99650.00;;;7.25;100.00
71299;BME280;59083;47.974;21.722;2023-04-26T01:56:34;99653.75;;;7.31;100.00
71299;BME280;59083;47.974;21.722;2023-04-26T01:59:35;99654.84;;;7.36;100.00
71299;BME280;59083;47.974;21.722;2023-04-26T02:02:36;99661.41;;;7.40;100.00
71299;BME280;59083;47.974;21.722;2023-04-26T02:05:38;99653.75;;;7.45;100.00
71299;BME280;59083;47.974;21.722;2023-04-26T02:08:39;99656.94;;;7.41;100.00
71299;BME280;59083;47.974;21.722;2023-04-26T02:11:41;99662.62;;;7.38;100.00
71299;BME280;59083;47.974;21.722;2023-04-26T02:14:42;99654.03;;;7.36;100.00
71299;BME280;59083;47.974;21.722;2023-04-26T02:17:44;99652.38;;;7.35;100.00
71299;BME280;59083;47.974;21.722;2023-04-26T02:20:46;99663.34;;;7.32;100.00
71299;BME280;59083;47.974;21.722;2023-04-26T02:23:48;99664.00;;;7.34;100.00
71299;BME280;59083;47.974;21.722;2023-04-26T02:26:49;99668.09;;;7.36;100.00
71299;BME280;59083;47.974;21.722;2023-04-26T02:29:51;99674.88;;;7.39;100.00
71299;BME280;59083;47.974;21.722;2023-04-26T02:32:53;99677.31;;;7.40;100.00
71299;BME280;59083;47.974;21.722;2023-04-26T02:35:55;99671.75;;;7.35;100.00
71299;BME280;59083;47.974;21.722;2023-04-26T02:38:56;99674.59;;;7.34;100.00
71299;BME280;59083;47.974;21.722;2023-04-26T02:41:57;99679.63;;;7.29;100.00
71299;BME280;59083;47.974;21.722;2023-04-26T02:44:59;99679.63;;;7.29;100.00
71299;BME280;59083;47.974;21.722;2023-04-26T02:48:00;99689.94;;;7.24;99.57
71299;BME280;59083;47.974;21.722;2023-04-26T02:51:02;99693.16;;;7.04;99.66
71299;BME280;59083;47.974;21.722;2023-04-26T02:54:03;99695.53;;;6.99;100.00
71299;BME280;59083;47.974;21.722;2023-04-26T02:57:05;99696.25;;;6.93;100.00
71299;BME280;59083;47.974;21.722;2023-04-26T03:00:08;99689.03;;;6.87;100.00
71299;BME280;59083;47.974;21.722;2023-04-26T03:03:10;99694.69;;;6.99;100.00
71299;BME280;59083;47.974;21.722;2023-04-26T03:06:12;99690.50;;;7.04;100.00
71299;BME280;59083;47.974;21.722;2023-04-26T03:09:13;99681.81;;;7.11;100.00
71299;BME280;59083;47.974;21.722;2023-04-26T03:12:15;99682.53;;;7.19;100.00
71299;BME280;59083;47.974;21.722;2023-04-26T03:15:16;99685.66;;;7.23;99.55
71299;BME280;59083;47.974;21.722;2023-04-26T03:18:18;99694.63;;;7.22;99.84
71299;BME280;59083;47.974;21.722;2023-04-26T03:21:19;99697.16;;;7.30;100.00
71299;BME280;59083;47.974;21.722;2023-04-26T03:24:21;99711.34;;;7.22;100.00
71299;BME280;59083;47.974;21.722;2023-04-26T03:27:22;99710.75;;;7.12;100.00
71299;BME280;59083;47.974;21.722;2023-04-26T03:30:24;99717.53;;;7.15;100.00
71299;BME280;59083;47.974;21.722;2023-04-26T03:33:25;99717.25;;;7.10;100.00
71299;BME280;59083;47.974;21.722;2023-04-26T03:36:27;99723.84;;;7.14;100.00
71299;BME280;59083;47.974;21.722;2023-04-26T03:39:28;99728.13;;;7.15;100.00
71299;BME280;59083;47.974;21.722;2023-04-26T03:42:29;99733.16;;;7.10;100.00
71299;BME280;59083;47.974;21.722;2023-04-26T03:45:30;99738.09;;;7.13;100.00
71299;BME280;59083;47.974;21.722;2023-04-26T03:48:32;99739.75;;;7.14;100.00
71299;BME280;59083;47.974;21.722;2023-04-26T03:51:34;99737.38;;;7.19;100.00
71299;BME280;59083;47.974;21.722;2023-04-26T03:54:35;99740.66;;;7.21;100.00
71299;BME280;59083;47.974;21.722;2023-04-26T03:57:36;99746.50;;;7.31;100.00
71299;BME280;59083;47.974;21.722;2023-04-26T04:00:39;99747.78;;;7.35;100.00
71299;BME280;59083;47.974;21.722;2023-04-26T04:03:44;99738.50;;;7.39;99.74
71299;BME280;59083;47.974;21.722;2023-04-26T04:06:45;99752.66;;;7.46;98.95
71299;BME280;59083;47.974;21.722;2023-04-26T04:09:47;99754.38;;;7.54;98.22
71299;BME280;59083;47.974;21.722;2023-04-26T04:12:51;99766.81;;;7.53;98.35
71299;BME280;59083;47.974;21.722;2023-04-26T04:15:54;99771.28;;;7.53;99.67
71299;BME280;59083;47.974;21.722;2023-04-26T04:18:55;99773.59;;;7.56;99.96
71299;BME280;59083;47.974;21.722;2023-04-26T04:21:56;99779.87;;;7.55;99.01
71299;BME280;59083;47.974;21.722;2023-04-26T04:24:58;99784.00;;;7.57;97.95
71299;BME280;59083;47.974;21.722;2023-04-26T04:28:03;99793.06;;;7.63;97.53
71299;BME280;59083;47.974;21.722;2023-04-26T04:31:04;99795.78;;;7.69;96.40
71299;BME280;59083;47.974;21.722;2023-04-26T04:34:06;99794.44;;;7.73;95.30
71299;BME280;59083;47.974;21.722;2023-04-26T04:37:09;99793.13;;;7.69;95.27
71299;BME280;59083;47.974;21.722;2023-04-26T04:40:11;99801.66;;;7.79;93.65
71299;BME280;59083;47.974;21.722;2023-04-26T04:43:14;99807.12;;;7.93;93.88
71299;BME280;59083;47.974;21.722;2023-04-26T04:46:16;99797.59;;;7.98;92.20
71299;BME280;59083;47.974;21.722;2023-04-26T04:49:18;99800.16;;;8.06;92.09
71299;BME280;59083;47.974;21.722;2023-04-26T04:52:19;99802.78;;;8.21;91.40
71299;BME280;59083;47.974;21.722;2023-04-26T04:55:23;99798.91;;;8.38;90.61
71299;BME280;59083;47.974;21.722;2023-04-26T04:58:25;99800.56;;;8.39;89.91
71299;BME280;59083;47.974;21.722;2023-04-26T05:01:27;99793.50;;;8.67;88.79
71299;BME280;59083;47.974;21.722;2023-04-26T05:04:29;99813.38;;;8.93;87.66
71299;BME280;59083;47.974;21.722;2023-04-26T05:07:34;99808.63;;;9.37;85.94
71299;BME280;59083;47.974;21.722;2023-04-26T05:10:35;99812.41;;;9.84;84.60
71299;BME280;59083;47.974;21.722;2023-04-26T05:13:37;99816.28;;;10.22;81.69
71299;BME280;59083;47.974;21.722;2023-04-26T05:16:39;99817.25;;;10.69;81.57
71299;BME280;59083;47.974;21.722;2023-04-26T05:19:41;99820.16;;;10.81;77.82
71299;BME280;59083;47.974;21.722;2023-04-26T05:22:43;99825.94;;;11.10;74.88
71299;BME280;59083;47.974;21.722;2023-04-26T05:25:44;99832.78;;;12.04;70.65
71299;BME280;59083;47.974;21.722;2023-04-26T05:28:48;99826.91;;;13.09;68.69
71299;BME280;59083;47.974;21.722;2023-04-26T05:31:51;99829.81;;;13.57;64.12
71299;BME280;59083;47.974;21.722;2023-04-26T05:34:54;99829.47;;;13.90;66.81
71299;BME280;59083;47.974;21.722;2023-04-26T05:37:56;99834.59;;;13.73;66.60
71299;BME280;59083;47.974;21.722;2023-04-26T05:40:57;99840.47;;;14.36;65.89
71299;BME280;59083;47.974;21.722;2023-04-26T05:43:58;99847.06;;;14.04;64.43
71299;BME280;59083;47.974;21.722;2023-04-26T05:47:00;99841.09;;;13.84;62.65
71299;BME280;59083;47.974;21.722;2023-04-26T05:50:01;99835.97;;;14.00;63.05
71299;BME280;59083;47.974;21.722;2023-04-26T05:53:03;99841.09;;;13.84;63.99
71299;BME280;59083;47.974;21.722;2023-04-26T05:56:05;99848.53;;;13.82;64.77
71299;BME280;59083;47.974;21.722;2023-04-26T05:59:08;99851.66;;;13.29;66.22
71299;BME280;59083;47.974;21.722;2023-04-26T06:02:09;99855.03;;;13.49;66.21
71299;BME280;59083;47.974;21.722;2023-04-26T06:05:12;99860.78;;;13.46;63.95
71299;BME280;59083;47.974;21.722;2023-04-26T06:08:14;99862.59;;;12.96;65.55
71299;BME280;59083;47.974;21.722;2023-04-26T06:11:16;99860.81;;;12.83;65.40
71299;BME280;59083;47.974;21.722;2023-04-26T06:14:17;99868.41;;;12.87;67.12
71299;BME280;59083;47.974;21.722;2023-04-26T06:17:18;99867.44;;;12.74;68.28
71299;BME280;59083;47.974;21.722;2023-04-26T06:20:20;99882.06;;;12.65;65.96
71299;BME280;59083;47.974;21.722;2023-04-26T06:23:22;99884.41;;;12.55;66.12
71299;BME280;59083;47.974;21.722;2023-04-26T06:26:23;99883.69;;;12.22;67.24
71299;BME280;59083;47.974;21.722;2023-04-26T06:29:25;99893.38;;;12.16;64.54
71299;BME280;59083;47.974;21.722;2023-04-26T06:32:26;99902.28;;;11.77;65.76
71299;BME280;59083;47.974;21.722;2023-04-26T06:35:28;99903.50;;;11.81;66.08
71299;BME280;59083;47.974;21.722;2023-04-26T06:38:29;99906.78;;;11.83;66.66
71299;BME280;59083;47.974;21.722;2023-04-26T06:41:31;99899.38;;;11.85;65.74
71299;BME280;59083;47.974;21.722;2023-04-26T06:44:32;99882.44;;;12.31;61.21
71299;BME280;59083;47.974;21.722;2023-04-26T06:47:35;99903.75;;;12.89;60.51
71299;BME280;59083;47.974;21.722;2023-04-26T06:50:37;99906.53;;;12.75;58.03
71299;BME280;59083;47.974;21.722;2023-04-26T06:53:40;99901.09;;;12.89;56.63
71299;BME280;59083;47.974;21.722;2023-04-26T06:56:41;99897.44;;;14.14;51.31
71299;BME280;59083;47.974;21.722;2023-04-26T06:59:42;99914.50;;;14.92;49.15
71299;BME280;59083;47.974;21.722;2023-04-26T07:02:44;99905.06;;;15.43;46.24
71299;BME280;59083;47.974;21.722;2023-04-26T07:05:45;99905.06;;;15.43;47.83
71299;BME280;59083;47.974;21.722;2023-04-26T07:08:46;99923.59;;;15.97;46.02
71299;BME280;59083;47.974;21.722;2023-04-26T07:11:48;99909.72;;;14.76;48.50
71299;BME280;59083;47.974;21.722;2023-04-26T07:14:49;99912.13;;;14.11;48.34
71299;BME280;59083;47.974;21.722;2023-04-26T07:17:50;99920.00;;;13.56;48.90
71299;BME280;59083;47.974;21.722;2023-04-26T07:20:51;99927.66;;;15.53;48.16
71299;BME280;59083;47.974;21.722;2023-04-26T07:23:56;99927.34;;;15.96;45.33
71299;BME280;59083;47.974;21.722;2023-04-26T07:26:57;99917.16;;;15.34;46.37
71299;BME280;59083;47.974;21.722;2023-04-26T07:29:59;99931.75;;;14.96;48.52
71299;BME280;59083;47.974;21.722;2023-04-26T07:33:00;99940.41;;;14.25;49.84
71299;BME280;59083;47.974;21.722;2023-04-26T07:36:02;99947.16;;;14.10;47.92
71299;BME280;59083;47.974;21.722;2023-04-26T07:39:03;99946.81;;;14.06;47.42
71299;BME280;59083;47.974;21.722;2023-04-26T07:42:09;99974.78;;;13.60;48.73
71299;BME280;59083;47.974;21.722;2023-04-26T07:45:11;99956.81;;;13.36;50.04
71299;BME280;59083;47.974;21.722;2023-04-26T07:48:12;99935.56;;;13.10;49.74
71299;BME280;59083;47.974;21.722;2023-04-26T07:51:13;99969.31;;;14.23;48.36
71299;BME280;59083;47.974;21.722;2023-04-26T07:54:15;99946.19;;;13.79;48.49
71299;BME280;59083;47.974;21.722;2023-04-26T07:57:16;99968.03;;;13.83;49.79
71299;BME280;59083;47.974;21.722;2023-04-26T08:00:18;99967.12;;;14.75;46.68
71299;BME280;59083;47.974;21.722;2023-04-26T08:03:19;99970.13;;;16.09;43.77
71299;BME280;59083;47.974;21.722;2023-04-26T08:06:20;99968.97;;;16.17;42.14
71299;BME280;59083;47.974;21.722;2023-04-26T08:09:22;99965.28;;;17.10;40.28
71299;BME280;59083;47.974;21.722;2023-04-26T08:12:23;99974.31;;;17.32;38.30
71299;BME280;59083;47.974;21.722;2023-04-26T08:15:24;99982.09;;;18.07;37.98
71299;BME280;59083;47.974;21.722;2023-04-26T08:18:26;99978.75;;;17.38;39.39
71299;BME280;59083;47.974;21.722;2023-04-26T08:21:27;99965.63;;;17.13;38.85
71299;BME280;59083;47.974;21.722;2023-04-26T08:24:28;99996.50;;;16.82;39.34
71299;BME280;59083;47.974;21.722;2023-04-26T08:27:29;99987.94;;;16.97;38.83
71299;BME280;59083;47.974;21.722;2023-04-26T08:30:31;99996.28;;;16.02;41.79
71299;BME280;59083;47.974;21.722;2023-04-26T08:33:32;100002.53;;;15.73;40.46
71299;BME280;59083;47.974;21.722;2023-04-26T08:36:37;99997.44;;;16.06;39.59
71299;BME280;59083;47.974;21.722;2023-04-26T08:39:38;99992.06;;;15.83;40.02
71299;BME280;59083;47.974;21.722;2023-04-26T08:42:40;99990.28;;;16.93;39.11
71299;BME280;59083;47.974;21.722;2023-04-26T08:45:46;99997.72;;;16.40;38.27
71299;BME280;59083;47.974;21.722;2023-04-26T08:48:54;99999.56;;;16.04;39.46
71299;BME280;59083;47.974;21.722;2023-04-26T08:52:03;100006.94;;;16.79;38.43
71299;BME280;59083;47.974;21.722;2023-04-26T08:55:08;100003.09;;;16.40;37.64
71299;BME280;59083;47.974;21.722;2023-04-26T08:58:10;99998.16;;;16.48;38.28
71299;BME280;59083;47.974;21.722;2023-04-26T09:01:14;100008.91;;;16.13;38.52
71299;BME280;59083;47.974;21.722;2023-04-26T09:04:16;100011.50;;;15.55;39.61
71299;BME280;59083;47.974;21.722;2023-04-26T09:07:24;100004.09;;;15.51;39.47
71299;BME280;59083;47.974;21.722;2023-04-26T09:10:27;100016.75;;;16.03;41.69
71299;BME280;59083;47.974;21.722;2023-04-26T09:13:28;100006.56;;;15.82;41.34
71299;BME280;59083;47.974;21.722;2023-04-26T09:16:36;100024.50;;;15.40;41.87
71299;BME280;59083;47.974;21.722;2023-04-26T09:19:38;100020.47;;;14.46;42.50
71299;BME280;59083;47.974;21.722;2023-04-26T09:22:42;100022.69;;;14.50;42.84
71299;BME280;59083;47.974;21.722;2023-04-26T09:25:43;100013.09;;;14.35;43.44
71299;BME280;59083;47.974;21.722;2023-04-26T09:28:45;100021.69;;;14.19;42.54
71299;BME280;59083;47.974;21.722;2023-04-26T09:31:48;100019.94;;;14.31;42.25
71299;BME280;59083;47.974;21.722;2023-04-26T09:34:50;100013.59;;;14.51;41.59
71299;BME280;59083;47.974;21.722;2023-04-26T09:37:53;99999.56;;;14.05;42.33
71299;BME280;59083;47.974;21.722;2023-04-26T09:40:55;100024.22;;;14.14;43.82
71299;BME280;59083;47.974;21.722;2023-04-26T09:43:59;100020.31;;;14.60;41.97
71299;BME280;59083;47.974;21.722;2023-04-26T09:47:03;100023.87;;;14.54;41.31
71299;BME280;59083;47.974;21.722;2023-04-26T09:50:05;100016.81;;;14.77;42.17
71299;BME280;59083;47.974;21.722;2023-04-26T09:53:07;100032.53;;;14.56;42.61
71299;BME280;59083;47.974;21.722;2023-04-26T09:56:17;100020.00;;;14.25;41.25
71299;BME280;59083;47.974;21.722;2023-04-26T09:59:18;100026.84;;;14.45;42.19
71299;BME280;59083;47.974;21.722;2023-04-26T10:05:22;100033.47;;;14.43;40.25
71299;BME280;59083;47.974;21.722;2023-04-26T10:08:23;100023.53;;;13.69;41.20
71299;BME280;59083;47.974;21.722;2023-04-26T10:11:25;100029.00;;;14.30;42.46
71299;BME280;59083;47.974;21.722;2023-04-26T10:14:26;100042.31;;;13.94;41.37
71299;BME280;59083;47.974;21.722;2023-04-26T10:17:28;100040.72;;;13.86;42.23
71299;BME280;59083;47.974;21.722;2023-04-26T10:20:29;100041.78;;;14.78;42.25
71299;BME280;59083;47.974;21.722;2023-04-26T10:23:32;100033.41;;;14.00;40.82
71299;BME280;59083;47.974;21.722;2023-04-26T10:26:53;100021.66;;;14.87;42.39
71299;BME280;59083;47.974;21.722;2023-04-26T10:36:06;100038.59;;;14.20;42.10
71299;BME280;59083;47.974;21.722;2023-04-26T10:39:18;100043.44;;;14.97;42.87
71299;BME280;59083;47.974;21.722;2023-04-26T10:42:29;100025.00;;;14.64;42.13
71299;BME280;59083;47.974;21.722;2023-04-26T10:45:30;100033.37;;;14.74;41.77
71299;BME280;59083;47.974;21.722;2023-04-26T10:48:32;100032.22;;;14.82;41.61
71299;BME280;59083;47.974;21.722;2023-04-26T10:51:33;100030.06;;;15.09;42.53
71299;BME280;59083;47.974;21.722;2023-04-26T10:54:48;100032.06;;;14.59;39.65
71299;BME280;59083;47.974;21.722;2023-04-26T10:57:51;100028.22;;;14.05;40.97
71299;BME280;59083;47.974;21.722;2023-04-26T11:01:15;100036.03;;;14.31;40.95
71299;BME280;59083;47.974;21.722;2023-04-26T11:04:17;100036.25;;;14.55;44.45
71299;BME280;59083;47.974;21.722;2023-04-26T11:07:37;100018.66;;;14.40;42.32
71299;BME280;59083;47.974;21.722;2023-04-26T11:10:39;100029.97;;;14.42;42.12
71299;BME280;59083;47.974;21.722;2023-04-26T11:13:41;100032.50;;;14.31;42.15
71299;BME280;59083;47.974;21.722;2023-04-26T11:16:44;100038.78;;;14.00;40.73
71299;BME280;59083;47.974;21.722;2023-04-26T11:19:46;100038.31;;;14.03;40.58
71299;BME280;59083;47.974;21.722;2023-04-26T11:22:47;100044.47;;;14.10;42.30
71299;BME280;59083;47.974;21.722;2023-04-26T11:25:49;100035.69;;;14.21;41.81
71299;BME280;59083;47.974;21.722;2023-04-26T11:28:50;100033.19;;;14.26;41.31
71299;BME280;59083;47.974;21.722;2023-04-26T11:31:56;100042.97;;;13.89;41.76
71299;BME280;59083;47.974;21.722;2023-04-26T11:34:59;100032.31;;;13.83;41.91
71299;BME280;59083;47.974;21.722;2023-04-26T11:38:03;100043.31;;;13.99;41.73
71299;BME280;59083;47.974;21.722;2023-04-26T11:41:05;100041.22;;;13.77;41.99
71299;BME280;59083;47.974;21.722;2023-04-26T11:44:06;100044.22;;;13.87;42.87
71299;BME280;59083;47.974;21.722;2023-04-26T11:47:08;100039.53;;;13.82;41.45
71299;BME280;59083;47.974;21.722;2023-04-26T11:50:10;100042.66;;;13.73;42.75
71299;BME280;59083;47.974;21.722;2023-04-26T11:53:11;100043.78;;;13.90;41.71
71299;BME280;59083;47.974;21.722;2023-04-26T11:56:16;100042.47;;;13.99;41.44
71299;BME280;59083;47.974;21.722;2023-04-26T11:59:29;100038.25;;;13.85;41.03
71299;BME280;59083;47.974;21.722;2023-04-26T12:02:30;100050.59;;;13.61;41.06
71299;BME280;59083;47.974;21.722;2023-04-26T12:05:32;100047.16;;;13.47;40.83
71299;BME280;59083;47.974;21.722;2023-04-26T12:08:33;100042.97;;;13.58;41.14
71299;BME280;59083;47.974;21.722;2023-04-26T12:11:34;100045.84;;;13.56;41.11
71299;BME280;59083;47.974;21.722;2023-04-26T12:14:39;100056.28;;;13.71;41.66
71299;BME280;59083;47.974;21.722;2023-04-26T12:17:57;100029.31;;;13.28;41.13
71299;BME280;59083;47.974;21.722;2023-04-26T12:20:59;100048.62;;;12.86;41.50
71299;BME280;59083;47.974;21.722;2023-04-26T12:24:01;100033.94;;;13.01;41.96
71299;BME280;59083;47.974;21.722;2023-04-26T12:27:03;100056.00;;;12.97;42.15
71299;BME280;59083;47.974;21.722;2023-04-26T12:30:06;100050.03;;;12.95;42.21
71299;BME280;59083;47.974;21.722;2023-04-26T12:33:07;100045.97;;;12.72;42.56
71299;BME280;59083;47.974;21.722;2023-04-26T12:36:10;100048.44;;;12.80;42.89
71299;BME280;59083;47.974;21.722;2023-04-26T12:39:11;100044.41;;;13.16;42.25
71299;BME280;59083;47.974;21.722;2023-04-26T12:42:14;100052.38;;;13.29;42.43
71299;BME280;59083;47.974;21.722;2023-04-26T12:45:16;100047.47;;;13.64;42.45
71299;BME280;59083;47.974;21.722;2023-04-26T12:48:18;100048.34;;;13.51;41.51
71299;BME280;59083;47.974;21.722;2023-04-26T12:51:19;100050.19;;;13.57;41.45
71299;BME280;59083;47.974;21.722;2023-04-26T12:54:21;100040.34;;;13.45;42.07
71299;BME280;59083;47.974;21.722;2023-04-26T12:57:22;100046.81;;;13.69;42.05
71299;BME280;59083;47.974;21.722;2023-04-26T13:00:23;100053.00;;;13.69;40.38
71299;BME280;59083;47.974;21.722;2023-04-26T13:03:24;100044.66;;;13.84;40.76
71299;BME280;59083;47.974;21.722;2023-04-26T13:06:26;100051.56;;;13.98;41.05
71299;BME280;59083;47.974;21.722;2023-04-26T13:09:30;100044.34;;;14.23;41.44
71299;BME280;59083;47.974;21.722;2023-04-26T13:12:31;100043.53;;;14.23;40.07
71299;BME280;59083;47.974;21.722;2023-04-26T13:15:33;100053.72;;;13.83;41.14
71299;BME280;59083;47.974;21.722;2023-04-26T13:18:34;100048.03;;;13.35;41.45
71299;BME280;59083;47.974;21.722;2023-04-26T13:21:36;100054.37;;;13.40;41.07
71299;BME280;59083;47.974;21.722;2023-04-26T13:24:37;100056.94;;;13.22;42.13
71299;BME280;59083;47.974;21.722;2023-04-26T13:27:39;100035.66;;;12.82;42.72
71299;BME280;59083;47.974;21.722;2023-04-26T13:30:40;100055.16;;;13.03;42.18
71299;BME280;59083;47.974;21.722;2023-04-26T13:33:41;100054.09;;;13.17;41.85
71299;BME280;59083;47.974;21.722;2023-04-26T13:36:42;100059.44;;;13.17;42.86
71299;BME280;59083;47.974;21.722;2023-04-26T13:39:44;100056.34;;;13.07;42.10
71299;BME280;59083;47.974;21.722;2023-04-26T13:42:45;100059.59;;;12.64;42.11
71299;BME280;59083;47.974;21.722;2023-04-26T13:45:46;100068.09;;;13.06;42.14
71299;BME280;59083;47.974;21.722;2023-04-26T13:48:47;100058.78;;;13.21;41.63
71299;BME280;59083;47.974;21.722;2023-04-26T13:51:48;100062.59;;;13.45;41.44
71299;BME280;59083;47.974;21.722;2023-04-26T13:54:50;100070.81;;;13.50;41.55
71299;BME280;59083;47.974;21.722;2023-04-26T13:57:51;100063.00;;;13.49;41.53
71299;BME280;59083;47.974;21.722;2023-04-26T14:00:52;100070.81;;;13.50;42.42
71299;BME280;59083;47.974;21.722;2023-04-26T14:03:54;100075.00;;;13.33;42.20
71299;BME280;59083;47.974;21.722;2023-04-26T14:06:55;100073.75;;;13.42;41.74
71299;BME280;59083;47.974;21.722;2023-04-26T14:09:56;100073.31;;;13.45;42.21
71299;BME280;59083;47.974;21.722;2023-04-26T14:12:57;100070.87;;;13.44;41.69
71299;BME280;59083;47.974;21.722;2023-04-26T14:15:59;100070.59;;;13.52;41.29
71299;BME280;59083;47.974;21.722;2023-04-26T14:19:00;100073.81;;;13.22;41.94
71299;BME280;59083;47.974;21.722;2023-04-26T14:22:02;100072.62;;;12.99;41.89
71299;BME280;59083;47.974;21.722;2023-04-26T14:25:04;100082.94;;;13.02;42.54
71299;BME280;59083;47.974;21.722;2023-04-26T14:28:05;100078.03;;;12.86;41.86
71299;BME280;59083;47.974;21.722;2023-04-26T14:31:08;100076.59;;;12.76;42.70
71299;BME280;59083;47.974;21.722;2023-04-26T14:34:09;100071.50;;;12.42;42.15
71299;BME280;59083;47.974;21.722;2023-04-26T14:37:10;100078.91;;;12.53;42.09
71299;BME280;59083;47.974;21.722;2023-04-26T14:40:12;100081.56;;;12.60;42.61
71299;BME280;59083;47.974;21.722;2023-04-26T14:43:13;100087.94;;;12.65;42.43
71299;BME280;59083;47.974;21.722;2023-04-26T14:46:14;100089.38;;;12.74;42.50
71299;BME280;59083;47.974;21.722;2023-04-26T14:49:16;100093.69;;;12.75;42.40
71299;BME280;59083;47.974;21.722;2023-04-26T14:52:17;100101.66;;;13.02;41.78
71299;BME280;59083;47.974;21.722;2023-04-26T14:55:18;100088.72;;;12.92;41.64
71299;BME280;59083;47.974;21.722;2023-04-26T14:58:23;100098.34;;;13.00;41.80
71299;BME280;59083;47.974;21.722;2023-04-26T15:01:24;100113.06;;;12.64;41.62
71299;BME280;59083;47.974;21.722;2023-04-26T15:04:25;100113.25;;;12.56;41.72
71299;BME280;59083;47.974;21.722;2023-04-26T15:07:27;100118.78;;;12.74;41.48
71299;BME280;59083;47.974;21.722;2023-04-26T15:10:28;100109.13;;;12.67;42.71
71299;BME280;59083;47.974;21.722;2023-04-26T15:13:29;100121.03;;;12.77;42.36
71299;BME280;59083;47.974;21.722;2023-04-26T15:16:30;100126.62;;;12.69;42.74
71299;BME280;59083;47.974;21.722;2023-04-26T15:19:32;100121.06;;;12.51;43.30
71299;BME280;59083;47.974;21.722;2023-04-26T15:22:33;100122.53;;;12.47;43.18
71299;BME280;59083;47.974;21.722;2023-04-26T15:25:35;100129.72;;;12.40;43.28
71299;BME280;59083;47.974;21.722;2023-04-26T15:28:37;100117.56;;;12.37;43.25
71299;BME280;59083;47.974;21.722;2023-04-26T15:31:38;100123.53;;;12.46;43.11
71299;BME280;59083;47.974;21.722;2023-04-26T15:34:40;100126.81;;;12.55;42.96
71299;BME280;59083;47.974;21.722;2023-04-26T15:37:44;100125.78;;;12.62;42.69
71299;BME280;59083;47.974;21.722;2023-04-26T15:40:46;100130.72;;;12.65;42.27
71299;BME280;59083;47.974;21.722;2023-04-26T15:43:52;100123.31;;;12.54;42.56
71299;BME280;59083;47.974;21.722;2023-04-26T15:46:53;100124.97;;;12.62;42.66
71299;BME280;59083;47.974;21.722;2023-04-26T15:50:00;100124.97;;;12.49;43.23
71299;BME280;59083;47.974;21.722;2023-04-26T15:53:01;100129.91;;;12.45;43.32
71299;BME280;59083;47.974;21.722;2023-04-26T15:56:02;100130.91;;;12.31;43.74
71299;BME280;59083;47.974;21.722;2023-04-26T15:59:13;100143.44;;;12.30;43.88